Time;durP1;ratioP1;P1;durP2;ratioP2;P2;SDS_P1;SDS_P2;PMS_P1;PMS_P2;Temp;Humidity;BMP_temperature;BMP_pressure;BME280_temperature;BME280_humidity;BME280_pressure;Samples;Min_cycle;Max_cycle;Signal;HPM_P1;HPM_P2
2023/09/13 00:00:20;;;;;;;;;;;22.50;99.90;;;;;;5075997;28;19924;-86
2023/09/13 00:02:46;;;;;;;;;;;22.50;99.90;;;;;;5090000;28;19951;-85
2023/09/13 00:05:13;;;;;;;;;;;22.40;99.90;;;;;;5091034;28;19928;-85
2023/09/13 00:07:40;;;;;;;;;;;22.40;99.90;;;;;;5091488;28;19924;-86
2023/09/13 00:10:07;;;;;;;;;;;22.40;99.90;;;;;;5089461;28;19930;-84
2023/09/13 00:12:34;;;;;;;;;;;22.40;99.90;;;;;;5088412;28;20350;-85
2023/09/13 00:15:01;;;;;;;;;;;22.30;99.90;;;;;;5072686;28;19929;-86
2023/09/13 00:17:28;;;;;;;;;;;22.30;99.90;;;;;;5091584;28;19929;-86
2023/09/13 00:19:56;;;;;;;;;;;22.20;99.90;;;;;;5091247;28;19924;-85
2023/09/13 00:22:23;;;;;;;;;;;22.20;99.90;;;;;;5090826;28;19929;-85
2023/09/13 00:24:49;;;;;;;;;;;22.20;99.90;;;;;;5073306;28;19924;-86
2023/09/13 00:27:16;;;;;;;;;;;22.10;99.90;;;;;;5091451;28;19935;-86
2023/09/13 00:29:43;;;;;;;;;;;22.10;99.90;;;;;;5091964;28;19950;-85
2023/09/13 00:32:09;;;;;;;;;;;22.10;99.90;;;;;;5091558;28;19924;-85
2023/09/13 00:34:36;;;;;;;;;;;22.10;99.90;;;;;;5091725;28;19924;-86
2023/09/13 00:37:03;;;;;;;;;;;22.10;99.90;;;;;;5089664;28;20189;-86
2023/09/13 00:39:30;;;;;;;;;;;22.10;99.90;;;;;;5090977;28;19924;-86
2023/09/13 00:41:57;;;;;;;;;;;22.10;99.90;;;;;;5091538;28;20467;-85
2023/09/13 00:44:24;;;;;;;;;;;22.10;99.90;;;;;;5090568;28;20298;-85
2023/09/13 00:46:51;;;;;;;;;;;22.10;99.90;;;;;;5091099;28;19947;-85
2023/09/13 00:49:17;;;;;;;;;;;22.10;99.90;;;;;;5091556;28;20064;-85
2023/09/13 00:51:44;;;;;;;;;;;22.20;99.90;;;;;;5090373;28;19925;-86
2023/09/13 00:54:12;;;;;;;;;;;22.20;99.90;;;;;;5090930;28;19988;-85
2023/09/13 00:56:40;;;;;;;;;;;22.10;99.90;;;;;;5090642;28;19928;-85
2023/09/13 00:59:08;;;;;;;;;;;22.10;99.90;;;;;;5073138;28;19963;-85
2023/09/13 01:01:35;;;;;;;;;;;22.10;99.90;;;;;;5090765;28;19967;-85
2023/09/13 01:04:02;;;;;;;;;;;22.10;99.90;;;;;;5087482;28;20343;-86
2023/09/13 01:06:30;;;;;;;;;;;22.10;99.90;;;;;;5089839;28;19925;-85
2023/09/13 01:08:57;;;;;;;;;;;22.10;99.90;;;;;;5089751;28;19924;-85
2023/09/13 01:11:24;;;;;;;;;;;22.10;99.90;;;;;;5087590;28;19924;-86
2023/09/13 01:13:51;;;;;;;;;;;22.10;99.90;;;;;;5090020;28;19924;-87
2023/09/13 01:16:39;;;;;;;;;;;22.10;99.90;;;;;;5088768;28;19931;-85
2023/09/13 01:19:36;;;;;;;;;;;22.10;99.90;;;;;;5067313;28;19930;-85
2023/09/13 01:22:09;;;;;;;;;;;22.10;99.90;;;;;;5086631;28;19928;-87
2023/09/13 01:24:54;;;;;;;;;;;22.00;99.90;;;;;;5069114;28;20383;-85
2023/09/13 01:27:36;;;;;;;;;;;22.10;99.90;;;;;;5084259;28;19943;-86
2023/09/13 01:30:04;;;;;;;;;;;22.10;99.90;;;;;;5086834;28;19970;-85
2023/09/13 01:32:33;;;;;;;;;;;22.00;99.90;;;;;;5086919;28;20456;-85
2023/09/13 01:34:59;;;;;;;;;;;22.00;99.90;;;;;;5088386;28;19951;-85
2023/09/13 01:37:26;;;;;;;;;;;22.00;99.90;;;;;;5088311;28;19925;-85
2023/09/13 01:39:52;;;;;;;;;;;21.90;99.90;;;;;;5088231;28;19950;-85
2023/09/13 01:42:19;;;;;;;;;;;21.90;99.90;;;;;;5064666;28;19932;-85
2023/09/13 01:44:46;;;;;;;;;;;21.90;99.90;;;;;;5070634;28;19931;-86
2023/09/13 01:47:14;;;;;;;;;;;21.90;99.90;;;;;;5088570;28;19924;-85
2023/09/13 01:49:42;;;;;;;;;;;21.90;99.90;;;;;;5088238;28;19951;-86
2023/09/13 01:52:09;;;;;;;;;;;21.90;99.90;;;;;;5089137;28;19928;-86
2023/09/13 01:54:36;;;;;;;;;;;21.90;99.90;;;;;;5085434;28;20510;-85
2023/09/13 01:57:03;;;;;;;;;;;21.80;99.90;;;;;;5087271;28;19929;-85
2023/09/13 01:59:32;;;;;;;;;;;21.80;99.90;;;;;;5088709;28;19931;-86
2023/09/13 02:01:58;;;;;;;;;;;21.80;99.90;;;;;;5088755;28;19933;-85
2023/09/13 02:04:31;;;;;;;;;;;21.80;99.90;;;;;;5075264;28;19948;-85
2023/09/13 02:06:59;;;;;;;;;;;21.70;99.90;;;;;;5087312;28;19924;-86
2023/09/13 02:09:26;;;;;;;;;;;21.70;99.90;;;;;;5065540;28;19931;-84
2023/09/13 02:11:52;;;;;;;;;;;21.70;99.90;;;;;;5086738;28;19973;-86
2023/09/13 02:14:19;;;;;;;;;;;21.70;99.90;;;;;;5079562;28;19963;-85
2023/09/13 02:16:46;;;;;;;;;;;21.70;99.90;;;;;;5088371;28;19931;-86
2023/09/13 02:19:13;;;;;;;;;;;21.70;99.90;;;;;;5088706;28;20510;-85
2023/09/13 02:21:40;;;;;;;;;;;21.60;99.90;;;;;;5088777;28;19924;-85
2023/09/13 02:24:07;;;;;;;;;;;21.70;99.90;;;;;;5087872;28;19978;-85
2023/09/13 02:26:35;;;;;;;;;;;21.60;99.90;;;;;;5087847;28;19924;-85
2023/09/13 02:29:02;;;;;;;;;;;21.60;99.90;;;;;;5088421;28;19934;-85
2023/09/13 02:31:29;;;;;;;;;;;21.60;99.90;;;;;;5088169;28;20355;-85
2023/09/13 02:33:56;;;;;;;;;;;21.70;99.90;;;;;;5088784;28;19978;-85
2023/09/13 02:36:23;;;;;;;;;;;21.60;99.90;;;;;;5087683;28;19924;-85
2023/09/13 02:38:53;;;;;;;;;;;21.60;99.90;;;;;;5089465;28;19928;-86
2023/09/13 02:41:19;;;;;;;;;;;21.50;99.90;;;;;;5085009;28;19925;-84
2023/09/13 02:43:46;;;;;;;;;;;21.60;99.90;;;;;;5074137;28;19924;-85
2023/09/13 02:46:13;;;;;;;;;;;21.50;99.90;;;;;;5075965;28;19925;-84
2023/09/13 02:48:40;;;;;;;;;;;21.50;99.90;;;;;;5083997;28;19924;-84
2023/09/13 02:51:13;;;;;;;;;;;21.50;99.90;;;;;;5079806;28;19924;-84
2023/09/13 02:53:40;;;;;;;;;;;21.50;99.90;;;;;;5066807;28;19931;-84
2023/09/13 02:56:07;;;;;;;;;;;21.50;99.90;;;;;;5079976;28;19925;-85
2023/09/13 02:58:34;;;;;;;;;;;21.50;99.90;;;;;;5083066;28;20465;-85
2023/09/13 03:01:04;;;;;;;;;;;21.50;99.90;;;;;;5076259;28;19924;-85
2023/09/13 03:03:32;;;;;;;;;;;21.50;99.90;;;;;;5084725;28;19930;-86
2023/09/13 03:06:06;;;;;;;;;;;21.50;99.90;;;;;;5069912;28;20271;-84
2023/09/13 03:08:33;;;;;;;;;;;21.50;99.90;;;;;;5084772;28;19947;-85
2023/09/13 03:11:07;;;;;;;;;;;21.50;99.90;;;;;;5086328;28;19970;-85
2023/09/13 03:13:34;;;;;;;;;;;21.50;99.90;;;;;;5087115;28;19978;-85
2023/09/13 03:16:01;;;;;;;;;;;21.50;99.90;;;;;;5088223;28;19946;-85
2023/09/13 03:18:27;;;;;;;;;;;21.40;99.90;;;;;;5088098;28;19929;-86
2023/09/13 03:20:54;;;;;;;;;;;21.50;99.90;;;;;;5088472;28;19925;-85
2023/09/13 03:23:21;;;;;;;;;;;21.40;99.90;;;;;;5088771;28;19947;-85
2023/09/13 03:25:47;;;;;;;;;;;21.50;99.90;;;;;;5079948;28;19924;-85
2023/09/13 03:28:14;;;;;;;;;;;21.50;99.90;;;;;;5088110;28;19962;-85
2023/09/13 03:30:40;;;;;;;;;;;21.30;99.90;;;;;;5079670;28;20021;-86
2023/09/13 03:33:08;;;;;;;;;;;21.30;99.90;;;;;;5082538;28;19925;-85
2023/09/13 03:35:34;;;;;;;;;;;21.30;99.90;;;;;;5088210;28;19931;-85
2023/09/13 03:38:01;;;;;;;;;;;21.30;99.90;;;;;;5089381;28;19924;-85
2023/09/13 03:40:27;;;;;;;;;;;21.30;99.90;;;;;;5091518;28;19924;-86
2023/09/13 03:42:54;;;;;;;;;;;21.30;99.90;;;;;;5091565;28;19947;-86
2023/09/13 03:45:21;;;;;;;;;;;21.30;99.90;;;;;;5075148;28;19924;-85
2023/09/13 03:47:47;;;;;;;;;;;21.20;99.90;;;;;;5089445;28;20031;-84
2023/09/13 03:50:14;;;;;;;;;;;21.30;99.90;;;;;;5093046;28;19943;-85
2023/09/13 03:52:41;;;;;;;;;;;21.20;99.90;;;;;;5074529;28;19924;-85
2023/09/13 03:55:08;;;;;;;;;;;21.20;99.90;;;;;;5091664;28;19924;-86
2023/09/13 03:57:34;;;;;;;;;;;21.20;99.90;;;;;;5080679;28;19924;-87
2023/09/13 04:00:01;;;;;;;;;;;21.20;99.90;;;;;;5092290;28;20415;-86
2023/09/13 04:02:28;;;;;;;;;;;21.20;99.90;;;;;;5091583;28;19928;-85
2023/09/13 04:04:54;;;;;;;;;;;21.20;99.90;;;;;;5091639;28;19924;-85
2023/09/13 04:07:21;;;;;;;;;;;21.20;99.90;;;;;;5092122;28;20488;-85
2023/09/13 04:09:48;;;;;;;;;;;21.10;99.90;;;;;;5091938;28;19977;-86
2023/09/13 04:12:15;;;;;;;;;;;21.10;99.90;;;;;;5074502;28;19985;-86
2023/09/13 04:14:41;;;;;;;;;;;21.10;99.90;;;;;;5091852;28;19932;-85
2023/09/13 04:17:08;;;;;;;;;;;21.10;99.90;;;;;;5090539;28;19925;-85
2023/09/13 04:19:35;;;;;;;;;;;21.10;99.90;;;;;;5091291;28;19947;-85
2023/09/13 04:22:01;;;;;;;;;;;21.10;99.90;;;;;;5075580;28;19924;-85
2023/09/13 04:24:28;;;;;;;;;;;21.10;99.90;;;;;;5091488;28;19948;-85
2023/09/13 04:26:55;;;;;;;;;;;21.10;99.90;;;;;;5083242;28;20453;-85
2023/09/13 04:29:21;;;;;;;;;;;21.10;99.90;;;;;;5091052;28;19924;-85
2023/09/13 04:31:48;;;;;;;;;;;21.10;99.90;;;;;;5089398;28;19924;-85
2023/09/13 04:34:16;;;;;;;;;;;21.10;99.90;;;;;;5087404;28;19991;-86
2023/09/13 04:36:43;;;;;;;;;;;21.10;99.90;;;;;;5087804;28;19924;-85
2023/09/13 04:39:09;;;;;;;;;;;21.10;99.90;;;;;;5088018;28;19931;-85
2023/09/13 04:41:36;;;;;;;;;;;21.10;99.90;;;;;;5089243;28;19929;-85
2023/09/13 04:44:03;;;;;;;;;;;21.10;99.90;;;;;;5087894;28;19925;-85
2023/09/13 04:46:29;;;;;;;;;;;21.10;99.90;;;;;;5088685;28;19928;-84
2023/09/13 04:48:57;;;;;;;;;;;21.10;99.90;;;;;;5088592;28;19924;-85
2023/09/13 04:51:24;;;;;;;;;;;21.10;99.90;;;;;;5087377;28;19924;-84
2023/09/13 04:53:50;;;;;;;;;;;21.10;99.90;;;;;;5089050;28;19928;-85
2023/09/13 04:56:17;;;;;;;;;;;21.00;99.90;;;;;;5068809;28;19996;-86
2023/09/13 04:58:44;;;;;;;;;;;21.00;99.90;;;;;;5085605;28;19924;-85
2023/09/13 05:01:10;;;;;;;;;;;21.00;99.90;;;;;;5072011;28;19925;-85
2023/09/13 05:03:37;;;;;;;;;;;21.00;99.90;;;;;;5088942;28;19967;-85
2023/09/13 05:06:04;;;;;;;;;;;21.00;99.90;;;;;;5088983;28;20401;-84
2023/09/13 05:08:34;;;;;;;;;;;21.00;99.90;;;;;;5089850;28;19935;-84
2023/09/13 05:11:01;;;;;;;;;;;21.00;99.90;;;;;;5086150;28;19924;-85
2023/09/13 05:13:28;;;;;;;;;;;21.00;99.90;;;;;;5090206;28;19924;-86
2023/09/13 05:15:54;;;;;;;;;;;21.00;99.90;;;;;;5090221;28;19931;-85
2023/09/13 05:18:21;;;;;;;;;;;21.00;99.90;;;;;;5089733;28;20285;-85
2023/09/13 05:20:48;;;;;;;;;;;21.00;99.90;;;;;;5078838;28;19946;-85
2023/09/13 05:23:14;;;;;;;;;;;21.00;99.90;;;;;;5091393;28;19935;-85
2023/09/13 05:25:45;;;;;;;;;;;21.00;99.90;;;;;;5090686;28;20284;-85
2023/09/13 05:28:12;;;;;;;;;;;21.00;99.90;;;;;;5091028;28;19983;-85
2023/09/13 05:30:39;;;;;;;;;;;21.00;99.90;;;;;;5089025;28;19962;-85
2023/09/13 05:33:06;;;;;;;;;;;21.00;99.90;;;;;;5091524;28;19947;-85
2023/09/13 05:35:33;;;;;;;;;;;21.10;99.90;;;;;;5088540;28;19931;-85
2023/09/13 05:38:00;;;;;;;;;;;21.10;99.90;;;;;;5088612;28;19982;-84
2023/09/13 05:40:28;;;;;;;;;;;21.00;99.90;;;;;;5070662;28;19925;-84
2023/09/13 05:42:55;;;;;;;;;;;21.10;99.90;;;;;;5069728;28;19925;-85
2023/09/13 05:45:23;;;;;;;;;;;21.10;99.90;;;;;;5088185;28;19924;-85
2023/09/13 05:47:50;;;;;;;;;;;21.10;99.90;;;;;;5086680;28;20459;-86
2023/09/13 05:50:16;;;;;;;;;;;21.10;99.90;;;;;;5088646;28;19966;-85
2023/09/13 05:52:43;;;;;;;;;;;21.00;99.90;;;;;;5088421;28;19924;-86
2023/09/13 05:55:10;;;;;;;;;;;21.00;99.90;;;;;;5089241;28;19951;-85
2023/09/13 05:57:37;;;;;;;;;;;21.00;99.90;;;;;;5089107;28;19992;-85
2023/09/13 06:00:05;;;;;;;;;;;21.10;99.90;;;;;;5072804;28;19939;-85
2023/09/13 06:02:31;;;;;;;;;;;21.10;99.90;;;;;;5089508;28;19928;-86
2023/09/13 06:04:58;;;;;;;;;;;21.10;99.90;;;;;;5082613;28;19924;-85
2023/09/13 06:07:25;;;;;;;;;;;21.10;99.90;;;;;;5072478;28;19947;-85
2023/09/13 06:09:51;;;;;;;;;;;21.10;99.90;;;;;;5077895;28;19960;-85
2023/09/13 06:12:18;;;;;;;;;;;21.10;99.90;;;;;;5089572;28;19942;-86
2023/09/13 06:14:45;;;;;;;;;;;21.10;99.90;;;;;;5088021;28;19924;-86
2023/09/13 06:17:12;;;;;;;;;;;21.20;99.90;;;;;;5088169;28;19924;-85
2023/09/13 06:19:39;;;;;;;;;;;21.10;99.90;;;;;;5089091;28;19928;-87
2023/09/13 06:22:06;;;;;;;;;;;21.20;99.90;;;;;;5094397;28;19944;-86
2023/09/13 06:24:33;;;;;;;;;;;21.20;99.90;;;;;;5092605;28;19924;-86
2023/09/13 06:27:00;;;;;;;;;;;21.20;99.90;;;;;;5085700;28;20407;-85
2023/09/13 06:29:27;;;;;;;;;;;21.30;99.90;;;;;;5083287;28;19924;-85
2023/09/13 06:31:54;;;;;;;;;;;21.30;99.90;;;;;;5083519;28;19962;-85
2023/09/13 06:34:31;;;;;;;;;;;21.30;99.90;;;;;;5081505;28;19971;-85
2023/09/13 06:36:59;;;;;;;;;;;21.30;99.90;;;;;;5085475;28;19924;-85
2023/09/13 06:39:26;;;;;;;;;;;21.30;99.90;;;;;;5065055;28;19996;-85
2023/09/13 06:41:54;;;;;;;;;;;21.30;99.90;;;;;;5081722;28;19925;-84
2023/09/13 06:44:20;;;;;;;;;;;21.30;99.90;;;;;;5084500;28;19939;-86
2023/09/13 06:47:07;;;;;;;;;;;21.30;99.90;;;;;;5075788;28;20399;-84
2023/09/13 06:49:35;;;;;;;;;;;21.30;99.90;;;;;;5085060;28;19978;-84
2023/09/13 06:52:04;;;;;;;;;;;21.30;99.90;;;;;;5084029;28;20445;-86
2023/09/13 06:54:32;;;;;;;;;;;21.30;99.90;;;;;;5084206;28;19925;-85
2023/09/13 06:57:04;;;;;;;;;;;21.40;99.90;;;;;;5083045;28;19931;-85
2023/09/13 06:59:34;;;;;;;;;;;21.40;99.90;;;;;;5084081;28;19970;-85
2023/09/13 07:02:17;;;;;;;;;;;21.40;99.90;;;;;;5084353;28;19963;-85
2023/09/13 07:04:58;;;;;;;;;;;21.40;99.90;;;;;;5079324;28;20060;-85
2023/09/13 07:07:27;;;;;;;;;;;21.50;99.90;;;;;;5084086;28;19951;-85
2023/09/13 07:09:54;;;;;;;;;;;21.50;99.90;;;;;;5085839;28;19932;-85
2023/09/13 07:12:21;;;;;;;;;;;21.60;99.90;;;;;;5065656;28;19951;-85
2023/09/13 07:14:57;;;;;;;;;;;21.60;99.90;;;;;;5088572;28;19989;-85
2023/09/13 07:17:24;;;;;;;;;;;21.70;99.90;;;;;;5087681;28;19982;-84
2023/09/13 07:19:51;;;;;;;;;;;21.80;99.90;;;;;;5087264;28;19925;-85
2023/09/13 07:22:17;;;;;;;;;;;21.80;99.90;;;;;;5087936;28;19931;-85
2023/09/13 07:24:44;;;;;;;;;;;21.90;99.90;;;;;;5088513;28;20654;-87
2023/09/13 07:27:11;;;;;;;;;;;21.90;99.90;;;;;;5088200;28;19924;-85
2023/09/13 07:29:38;;;;;;;;;;;21.90;99.90;;;;;;5085257;28;20471;-86
2023/09/13 07:32:05;;;;;;;;;;;21.90;99.90;;;;;;5072051;28;19928;-85
2023/09/13 07:34:32;;;;;;;;;;;22.00;99.90;;;;;;5088844;28;19924;-85
2023/09/13 07:36:58;;;;;;;;;;;22.00;99.90;;;;;;5075294;28;20055;-85
2023/09/13 07:39:25;;;;;;;;;;;22.10;99.90;;;;;;5088264;28;19928;-85
2023/09/13 07:41:52;;;;;;;;;;;22.10;99.90;;;;;;5088244;28;19931;-85
2023/09/13 07:44:18;;;;;;;;;;;22.10;99.90;;;;;;5087771;28;20011;-85
2023/09/13 07:46:45;;;;;;;;;;;22.20;99.90;;;;;;5087751;28;19924;-85
2023/09/13 07:49:12;;;;;;;;;;;22.20;99.90;;;;;;5086556;28;20391;-85
2023/09/13 07:51:39;;;;;;;;;;;22.20;99.90;;;;;;5087846;28;20053;-87
2023/09/13 07:54:07;;;;;;;;;;;22.20;99.90;;;;;;5071467;28;19925;-85
2023/09/13 07:56:37;;;;;;;;;;;22.20;99.90;;;;;;5087752;28;20015;-84
2023/09/13 07:59:05;;;;;;;;;;;22.30;99.90;;;;;;5087932;28;19925;-85
2023/09/13 08:01:32;;;;;;;;;;;22.30;99.90;;;;;;5087195;28;19931;-85
2023/09/13 08:03:58;;;;;;;;;;;22.30;99.90;;;;;;5086409;28;19928;-85
2023/09/13 08:06:25;;;;;;;;;;;22.40;99.90;;;;;;5086788;28;19932;-85
2023/09/13 08:08:52;;;;;;;;;;;22.40;99.90;;;;;;5087820;28;19947;-86
2023/09/13 08:11:19;;;;;;;;;;;22.50;99.90;;;;;;5086493;28;19931;-84
2023/09/13 08:13:45;;;;;;;;;;;22.50;99.90;;;;;;5086485;28;19924;-85
2023/09/13 08:16:12;;;;;;;;;;;22.50;99.90;;;;;;5087842;28;19978;-84
2023/09/13 08:18:39;;;;;;;;;;;22.50;99.90;;;;;;5089449;28;19925;-85
2023/09/13 08:21:06;;;;;;;;;;;22.60;99.90;;;;;;5088276;28;19925;-85
2023/09/13 08:23:33;;;;;;;;;;;22.60;99.90;;;;;;5087042;28;20437;-86
2023/09/13 08:25:59;;;;;;;;;;;22.70;99.90;;;;;;5086516;28;19924;-85
2023/09/13 08:28:46;;;;;;;;;;;22.70;99.90;;;;;;5082626;28;19928;-85
2023/09/13 08:31:13;;;;;;;;;;;22.70;99.90;;;;;;5088931;28;19981;-85
2023/09/13 08:33:40;;;;;;;;;;;22.70;99.90;;;;;;5088178;28;19924;-86
2023/09/13 08:36:07;;;;;;;;;;;22.70;99.90;;;;;;5089189;28;19928;-85
2023/09/13 08:38:33;;;;;;;;;;;22.70;99.90;;;;;;5087728;28;19924;-86
2023/09/13 08:41:02;;;;;;;;;;;22.70;99.90;;;;;;5070955;28;20035;-85
2023/09/13 08:43:30;;;;;;;;;;;22.80;99.90;;;;;;5089496;28;19978;-85
2023/09/13 08:45:57;;;;;;;;;;;22.70;99.90;;;;;;5088984;28;20019;-86
2023/09/13 08:48:25;;;;;;;;;;;22.70;99.90;;;;;;5089591;28;20376;-86
2023/09/13 08:50:52;;;;;;;;;;;22.70;99.90;;;;;;5089455;28;20412;-86
2023/09/13 08:53:20;;;;;;;;;;;22.70;99.90;;;;;;5085093;28;19932;-85
2023/09/13 08:55:47;;;;;;;;;;;22.70;99.90;;;;;;5088989;28;20383;-86
2023/09/13 08:58:14;;;;;;;;;;;22.80;99.90;;;;;;5090505;28;19925;-86
2023/09/13 09:00:41;;;;;;;;;;;22.80;99.90;;;;;;5092435;28;19924;-86
2023/09/13 09:03:09;;;;;;;;;;;22.90;99.90;;;;;;5094881;28;19924;-85
2023/09/13 09:05:37;;;;;;;;;;;23.00;99.90;;;;;;5091563;28;20481;-86
2023/09/13 09:08:04;;;;;;;;;;;23.00;99.90;;;;;;5072526;28;19924;-85
2023/09/13 09:10:31;;;;;;;;;;;23.10;99.90;;;;;;5086143;28;19947;-84
2023/09/13 09:12:58;;;;;;;;;;;23.30;99.90;;;;;;5087217;28;19924;-85
2023/09/13 09:15:26;;;;;;;;;;;23.40;99.90;;;;;;5069653;28;19974;-85
2023/09/13 09:17:53;;;;;;;;;;;23.50;99.90;;;;;;5069052;28;19928;-85
2023/09/13 09:20:20;;;;;;;;;;;23.50;99.90;;;;;;5067622;28;19924;-85
2023/09/13 09:22:47;;;;;;;;;;;23.60;99.90;;;;;;5086274;28;19971;-86
2023/09/13 09:25:14;;;;;;;;;;;23.60;99.90;;;;;;5064918;28;19928;-85
2023/09/13 09:27:41;;;;;;;;;;;23.70;99.90;;;;;;5086167;28;20381;-85
2023/09/13 09:30:14;;;;;;;;;;;23.70;99.90;;;;;;5073007;28;19925;-85
2023/09/13 09:32:41;;;;;;;;;;;23.80;99.90;;;;;;5084612;28;20023;-86
2023/09/13 09:35:08;;;;;;;;;;;23.90;99.90;;;;;;5085003;28;19924;-85
2023/09/13 09:37:36;;;;;;;;;;;23.90;99.90;;;;;;5085597;28;19925;-86
2023/09/13 09:40:09;;;;;;;;;;;24.00;99.90;;;;;;5085584;28;19942;-85
2023/09/13 09:42:36;;;;;;;;;;;24.10;99.90;;;;;;5074269;28;19924;-85
2023/09/13 09:45:03;;;;;;;;;;;24.30;99.90;;;;;;5083885;28;19928;-86
2023/09/13 09:47:35;;;;;;;;;;;24.30;99.90;;;;;;5085616;28;19924;-85
2023/09/13 09:50:05;;;;;;;;;;;24.50;99.90;;;;;;5086083;28;19992;-85
2023/09/13 09:52:34;;;;;;;;;;;24.60;99.90;;;;;;5086659;28;19924;-85
2023/09/13 09:55:03;;;;;;;;;;;24.70;99.90;;;;;;5085655;28;19936;-85
2023/09/13 09:57:31;;;;;;;;;;;24.70;99.90;;;;;;5083576;28;19924;-85
2023/09/13 09:59:58;;;;;;;;;;;24.80;99.90;;;;;;5083831;28;19984;-85
2023/09/13 10:02:28;;;;;;;;;;;24.90;99.90;;;;;;5082989;28;19924;-85
2023/09/13 10:04:55;;;;;;;;;;;24.90;99.90;;;;;;5061292;28;19960;-85
2023/09/13 10:07:22;;;;;;;;;;;25.00;99.90;;;;;;5081090;28;19925;-85
2023/09/13 10:09:48;;;;;;;;;;;25.10;99.90;;;;;;5067430;28;19970;-85
2023/09/13 10:12:15;;;;;;;;;;;25.20;99.90;;;;;;5084755;28;19954;-85
2023/09/13 10:14:43;;;;;;;;;;;25.30;99.90;;;;;;5066769;28;19980;-86
2023/09/13 10:17:10;;;;;;;;;;;25.30;99.90;;;;;;5072156;28;19925;-85
2023/09/13 10:19:38;;;;;;;;;;;25.50;99.90;;;;;;5068823;28;20022;-86
2023/09/13 10:22:05;;;;;;;;;;;25.60;99.90;;;;;;5085501;28;19967;-85
2023/09/13 10:24:39;;;;;;;;;;;25.70;99.90;;;;;;5085738;28;19924;-85
2023/09/13 10:27:07;;;;;;;;;;;25.70;99.90;;;;;;5085504;28;20370;-87
2023/09/13 10:29:37;;;;;;;;;;;25.70;99.90;;;;;;5083698;28;20345;-85
2023/09/13 10:32:06;;;;;;;;;;;25.80;99.90;;;;;;5083607;28;19982;-85
2023/09/13 10:34:40;;;;;;;;;;;25.90;99.90;;;;;;5070866;28;20384;-85
2023/09/13 10:37:22;;;;;;;;;;;25.90;99.90;;;;;;5065616;28;19935;-85
2023/09/13 10:39:57;;;;;;;;;;;25.90;99.90;;;;;;5083045;28;19978;-86
2023/09/13 10:42:23;;;;;;;;;;;26.00;99.90;;;;;;5084040;28;19924;-86
2023/09/13 10:44:51;;;;;;;;;;;26.00;99.90;;;;;;5086618;28;19986;-85
2023/09/13 10:47:19;;;;;;;;;;;26.00;99.90;;;;;;5084936;28;19935;-87
2023/09/13 10:49:47;;;;;;;;;;;26.10;99.90;;;;;;5084199;28;19924;-86
2023/09/13 10:52:14;;;;;;;;;;;26.10;99.90;;;;;;5086548;28;20007;-86
2023/09/13 10:54:41;;;;;;;;;;;26.10;99.90;;;;;;5072201;28;19982;-86
2023/09/13 10:57:08;;;;;;;;;;;26.20;99.90;;;;;;5065317;28;19993;-86
2023/09/13 10:59:35;;;;;;;;;;;26.20;99.90;;;;;;5086533;28;19947;-87
2023/09/13 11:02:05;;;;;;;;;;;26.20;99.90;;;;;;5086969;28;19924;-86
2023/09/13 11:04:32;;;;;;;;;;;26.20;99.90;;;;;;5086079;28;19924;-86
2023/09/13 11:07:00;;;;;;;;;;;26.20;99.90;;;;;;5085485;28;19924;-86
2023/09/13 11:09:30;;;;;;;;;;;26.20;99.90;;;;;;5088305;28;19924;-86
2023/09/13 11:11:57;;;;;;;;;;;26.20;99.90;;;;;;5083250;28;19978;-86
2023/09/13 11:14:27;;;;;;;;;;;26.20;99.90;;;;;;5088609;28;19990;-86
2023/09/13 11:16:54;;;;;;;;;;;26.30;99.90;;;;;;5085083;28;19975;-85
2023/09/13 11:19:27;;;;;;;;;;;26.30;99.90;;;;;;5084587;28;19935;-86
2023/09/13 11:22:00;;;;;;;;;;;26.40;99.90;;;;;;5084510;28;19928;-86
2023/09/13 11:24:46;;;;;;;;;;;26.50;99.90;;;;;;5083094;28;19925;-86
2023/09/13 11:27:16;;;;;;;;;;;26.60;99.90;;;;;;5086071;28;19924;-86
2023/09/13 11:29:52;;;;;;;;;;;26.70;99.90;;;;;;5083909;28;19936;-85
2023/09/13 11:32:20;;;;;;;;;;;26.70;99.90;;;;;;5083516;28;19924;-86
2023/09/13 11:34:54;;;;;;;;;;;26.80;99.90;;;;;;5084524;28;19924;-86
2023/09/13 11:37:23;;;;;;;;;;;26.70;99.90;;;;;;5084460;28;19936;-87
2023/09/13 11:39:53;;;;;;;;;;;26.50;99.90;;;;;;5083638;28;19975;-85
2023/09/13 11:42:28;;;;;;;;;;;26.40;99.90;;;;;;5090783;28;19947;-87
2023/09/13 11:45:06;;;;;;;;;;;26.20;99.90;;;;;;5083407;28;19946;-85
2023/09/13 11:47:36;;;;;;;;;;;26.00;99.90;;;;;;5079315;28;19967;-85
2023/09/13 11:50:03;;;;;;;;;;;25.80;99.90;;;;;;5080101;28;19992;-85
2023/09/13 11:52:58;;;;;;;;;;;25.40;99.90;;;;;;5078057;28;20065;-85
2023/09/13 11:55:26;;;;;;;;;;;25.10;99.90;;;;;;5077362;28;19976;-85
2023/09/13 11:58:03;;;;;;;;;;;24.90;99.90;;;;;;5077411;28;19925;-85
2023/09/13 12:00:45;;;;;;;;;;;24.60;99.90;;;;;;5081453;28;19935;-86
2023/09/13 12:03:15;;;;;;;;;;;24.30;99.90;;;;;;5084597;28;19936;-84
2023/09/13 12:05:45;;;;;;;;;;;24.10;99.90;;;;;;5086261;28;19964;-85
2023/09/13 12:08:37;;;;;;;;;;;23.90;99.90;;;;;;5084455;28;19931;-85
2023/09/13 12:11:08;;;;;;;;;;;23.80;99.90;;;;;;5081456;28;20302;-85
2023/09/13 12:13:45;;;;;;;;;;;23.70;99.90;;;;;;5088075;28;20272;-86
2023/09/13 12:16:32;;;;;;;;;;;23.70;99.90;;;;;;5087699;28;20015;-85
2023/09/13 12:18:59;;;;;;;;;;;23.60;99.90;;;;;;5070276;28;19947;-85
2023/09/13 12:21:26;;;;;;;;;;;23.50;99.90;;;;;;5089032;28;19925;-85
2023/09/13 12:23:52;;;;;;;;;;;23.50;99.90;;;;;;5089137;28;19942;-86
2023/09/13 12:26:19;;;;;;;;;;;23.50;99.90;;;;;;5088909;28;19928;-86
2023/09/13 12:28:46;;;;;;;;;;;23.50;99.90;;;;;;5077394;28;19932;-85
2023/09/13 12:31:14;;;;;;;;;;;23.50;99.90;;;;;;5080192;28;19935;-86
2023/09/13 12:33:42;;;;;;;;;;;23.50;99.90;;;;;;5087935;28;19925;-85
2023/09/13 12:36:09;;;;;;;;;;;23.50;99.90;;;;;;5088660;28;19947;-85
2023/09/13 12:38:42;;;;;;;;;;;23.60;99.90;;;;;;5076917;28;19995;-86
2023/09/13 12:41:13;;;;;;;;;;;23.60;99.90;;;;;;5085878;28;19968;-85
2023/09/13 12:43:42;;;;;;;;;;;23.70;99.90;;;;;;5089165;28;19951;-86
2023/09/13 12:46:11;;;;;;;;;;;23.80;99.90;;;;;;5088543;28;19925;-85
2023/09/13 12:48:38;;;;;;;;;;;23.90;99.90;;;;;;5088663;28;19925;-86
2023/09/13 12:51:05;;;;;;;;;;;24.00;99.90;;;;;;5088857;28;19932;-85
2023/09/13 12:53:32;;;;;;;;;;;24.10;99.90;;;;;;5077197;28;19929;-86
2023/09/13 12:55:58;;;;;;;;;;;24.20;99.90;;;;;;5071904;28;19964;-86
2023/09/13 12:58:25;;;;;;;;;;;24.30;99.90;;;;;;5089238;28;19950;-86
2023/09/13 13:00:56;;;;;;;;;;;24.50;99.90;;;;;;5088963;28;19951;-86
2023/09/13 13:03:25;;;;;;;;;;;24.60;99.90;;;;;;5085039;28;19925;-85
2023/09/13 13:05:56;;;;;;;;;;;24.70;99.90;;;;;;5087966;28;19931;-86
2023/09/13 13:08:35;;;;;;;;;;;24.70;99.90;;;;;;5088565;28;19951;-86
2023/09/13 13:11:03;;;;;;;;;;;24.70;99.90;;;;;;5088234;28;19924;-86
2023/09/13 13:13:34;;;;;;;;;;;24.80;99.90;;;;;;5069960;28;19931;-86
2023/09/13 13:16:01;;;;;;;;;;;24.90;99.90;;;;;;5067546;28;19947;-86
2023/09/13 13:18:28;;;;;;;;;;;24.90;99.90;;;;;;5074516;28;19931;-85
2023/09/13 13:20:55;;;;;;;;;;;24.90;99.90;;;;;;5070518;28;19930;-86
2023/09/13 13:23:34;;;;;;;;;;;24.90;99.90;;;;;;5088255;28;19924;-86
2023/09/13 13:26:01;;;;;;;;;;;24.80;99.90;;;;;;5086763;28;19925;-86
2023/09/13 13:28:27;;;;;;;;;;;24.70;99.90;;;;;;5079151;28;19924;-86
2023/09/13 13:30:56;;;;;;;;;;;24.80;99.90;;;;;;5081061;28;19984;-86
2023/09/13 13:33:23;;;;;;;;;;;24.80;99.90;;;;;;5085650;28;19932;-86
2023/09/13 13:35:51;;;;;;;;;;;24.70;99.90;;;;;;5090697;28;19947;-86
2023/09/13 13:38:17;;;;;;;;;;;24.70;99.90;;;;;;5081814;28;19924;-86
2023/09/13 13:40:45;;;;;;;;;;;24.70;99.90;;;;;;5086449;28;19936;-85
2023/09/13 13:43:11;;;;;;;;;;;24.70;99.90;;;;;;5087775;28;19938;-86
2023/09/13 13:45:38;;;;;;;;;;;24.70;99.90;;;;;;5087803;28;20357;-85
2023/09/13 13:48:05;;;;;;;;;;;24.70;99.90;;;;;;5087761;28;19931;-86
2023/09/13 13:50:32;;;;;;;;;;;24.70;99.90;;;;;;5088231;28;19967;-87
2023/09/13 13:52:58;;;;;;;;;;;24.60;99.90;;;;;;5063955;28;19947;-85
2023/09/13 13:55:25;;;;;;;;;;;24.50;99.90;;;;;;5075982;28;19950;-86
2023/09/13 13:57:51;;;;;;;;;;;24.40;99.90;;;;;;5070473;28;19963;-86
2023/09/13 14:00:18;;;;;;;;;;;24.40;99.90;;;;;;5087325;28;20255;-85
2023/09/13 14:02:46;;;;;;;;;;;24.20;99.90;;;;;;5073457;28;19925;-87
2023/09/13 14:05:14;;;;;;;;;;;24.30;99.90;;;;;;5087871;28;20338;-87
2023/09/13 14:07:40;;;;;;;;;;;24.30;99.90;;;;;;5087567;28;19925;-85
2023/09/13 14:10:07;;;;;;;;;;;24.20;99.90;;;;;;5067887;28;19958;-86
2023/09/13 14:12:34;;;;;;;;;;;24.30;99.90;;;;;;5087504;28;20453;-87
2023/09/13 14:15:00;;;;;;;;;;;24.30;99.90;;;;;;5087253;28;19925;-86
2023/09/13 14:17:27;;;;;;;;;;;24.40;99.90;;;;;;5087830;28;19947;-86
2023/09/13 14:19:54;;;;;;;;;;;24.30;99.90;;;;;;5087350;28;19947;-86
2023/09/13 14:22:20;;;;;;;;;;;24.30;99.90;;;;;;5085482;28;19936;-85